sensor_id;sensor_type;location;lat;lon;timestamp;temperature;humidity
23403;DHT22;11874;48.228;11.684;2022-08-21T00:01:52;18.30;99.90
23403;DHT22;11874;48.228;11.684;2022-08-21T00:04:21;18.40;99.90
23403;DHT22;11874;48.228;11.684;2022-08-21T00:06:55;18.40;99.90
23403;DHT22;11874;48.228;11.684;2022-08-21T00:09:23;18.40;99.90
23403;DHT22;11874;48.228;11.684;2022-08-21T00:11:52;18.30;99.90
23403;DHT22;11874;48.228;11.684;2022-08-21T00:14:20;18.40;99.90
23403;DHT22;11874;48.228;11.684;2022-08-21T00:16:48;18.40;99.90
23403;DHT22;11874;48.228;11.684;2022-08-21T00:19:15;18.30;99.90
23403;DHT22;11874;48.228;11.684;2022-08-21T00:21:43;18.30;99.90
23403;DHT22;11874;48.228;11.684;2022-08-21T00:24:11;18.20;99.90
23403;DHT22;11874;48.228;11.684;2022-08-21T00:26:39;18.30;99.90
23403;DHT22;11874;48.228;11.684;2022-08-21T00:29:10;18.30;99.90
23403;DHT22;11874;48.228;11.684;2022-08-21T00:31:38;18.30;99.90
23403;DHT22;11874;48.228;11.684;2022-08-21T00:34:06;18.20;99.90
23403;DHT22;11874;48.228;11.684;2022-08-21T00:36:34;18.20;99.90
23403;DHT22;11874;48.228;11.684;2022-08-21T00:39:02;18.30;99.90
23403;DHT22;11874;48.228;11.684;2022-08-21T00:41:31;18.20;99.90
23403;DHT22;11874;48.228;11.684;2022-08-21T00:44:04;18.20;99.90
23403;DHT22;11874;48.228;11.684;2022-08-21T00:46:34;18.20;99.90
23403;DHT22;11874;48.228;11.684;2022-08-21T00:49:03;18.20;99.90
23403;DHT22;11874;48.228;11.684;2022-08-21T00:51:37;18.20;99.90
23403;DHT22;11874;48.228;11.684;2022-08-21T00:54:06;18.20;99.90
23403;DHT22;11874;48.228;11.684;2022-08-21T00:56:44;18.10;99.90
23403;DHT22;11874;48.228;11.684;2022-08-21T00:59:13;18.10;99.90
23403;DHT22;11874;48.228;11.684;2022-08-21T01:01:44;18.10;99.90
23403;DHT22;11874;48.228;11.684;2022-08-21T01:04:12;18.10;99.90
23403;DHT22;11874;48.228;11.684;2022-08-21T01:06:40;18.10;99.90
23403;DHT22;11874;48.228;11.684;2022-08-21T01:09:08;18.10;99.90
23403;DHT22;11874;48.228;11.684;2022-08-21T01:11:36;18.10;99.90
23403;DHT22;11874;48.228;11.684;2022-08-21T01:14:04;18.10;99.90
23403;DHT22;11874;48.228;11.684;2022-08-21T01:16:33;18.00;99.90
23403;DHT22;11874;48.228;11.684;2022-08-21T01:19:02;18.00;99.90
23403;DHT22;11874;48.228;11.684;2022-08-21T01:21:31;18.00;99.90
23403;DHT22;11874;48.228;11.684;2022-08-21T01:24:00;18.00;99.90
23403;DHT22;11874;48.228;11.684;2022-08-21T01:26:31;18.00;99.90
23403;DHT22;11874;48.228;11.684;2022-08-21T01:29:06;18.00;99.90
23403;DHT22;11874;48.228;11.684;2022-08-21T01:31:34;18.00;99.90
23403;DHT22;11874;48.228;11.684;2022-08-21T01:34:04;18.00;99.90
23403;DHT22;11874;48.228;11.684;2022-08-21T01:36:34;18.00;99.90
23403;DHT22;11874;48.228;11.684;2022-08-21T01:39:03;18.00;99.90
23403;DHT22;11874;48.228;11.684;2022-08-21T01:41:31;17.90;99.90
23403;DHT22;11874;48.228;11.684;2022-08-21T01:43:59;17.90;99.90
23403;DHT22;11874;48.228;11.684;2022-08-21T01:46:27;17.90;99.90
23403;DHT22;11874;48.228;11.684;2022-08-21T01:48:54;18.00;99.90
23403;DHT22;11874;48.228;11.684;2022-08-21T01:51:22;17.90;99.90
23403;DHT22;11874;48.228;11.684;2022-08-21T01:53:52;17.90;99.90
23403;DHT22;11874;48.228;11.684;2022-08-21T01:56:20;17.90;99.90
23403;DHT22;11874;48.228;11.684;2022-08-21T01:58:49;17.90;99.90
23403;DHT22;11874;48.228;11.684;2022-08-21T02:01:16;17.90;99.90
23403;DHT22;11874;48.228;11.684;2022-08-21T02:03:44;17.90;99.90
23403;DHT22;11874;48.228;11.684;2022-08-21T02:06:14;17.80;99.90
23403;DHT22;11874;48.228;11.684;2022-08-21T02:08:44;17.80;99.90
23403;DHT22;11874;48.228;11.684;2022-08-21T02:11:13;17.80;99.90
23403;DHT22;11874;48.228;11.684;2022-08-21T02:13:41;17.80;99.90
23403;DHT22;11874;48.228;11.684;2022-08-21T02:16:09;17.60;99.90
23403;DHT22;11874;48.228;11.684;2022-08-21T02:18:42;17.80;99.90
23403;DHT22;11874;48.228;11.684;2022-08-21T02:21:10;17.80;99.90
23403;DHT22;11874;48.228;11.684;2022-08-21T02:23:38;17.80;99.90
23403;DHT22;11874;48.228;11.684;2022-08-21T02:26:07;17.80;99.90
23403;DHT22;11874;48.228;11.684;2022-08-21T02:28:37;17.80;99.90
23403;DHT22;11874;48.228;11.684;2022-08-21T02:31:05;17.80;99.90
23403;DHT22;11874;48.228;11.684;2022-08-21T02:33:34;17.80;99.90
23403;DHT22;11874;48.228;11.684;2022-08-21T02:36:03;17.70;99.90
23403;DHT22;11874;48.228;11.684;2022-08-21T02:38:33;17.70;99.90
23403;DHT22;11874;48.228;11.684;2022-08-21T02:41:04;17.70;99.90
23403;DHT22;11874;48.228;11.684;2022-08-21T02:43:32;17.70;99.90
23403;DHT22;11874;48.228;11.684;2022-08-21T02:46:04;17.70;99.90
23403;DHT22;11874;48.228;11.684;2022-08-21T02:48:33;17.70;99.90
23403;DHT22;11874;48.228;11.684;2022-08-21T02:51:04;17.70;99.90
23403;DHT22;11874;48.228;11.684;2022-08-21T02:53:33;17.70;99.90
23403;DHT22;11874;48.228;11.684;2022-08-21T02:56:05;17.70;99.90
23403;DHT22;11874;48.228;11.684;2022-08-21T02:58:37;17.70;99.90
23403;DHT22;11874;48.228;11.684;2022-08-21T03:01:07;17.70;99.90
23403;DHT22;11874;48.228;11.684;2022-08-21T03:03:37;17.60;99.90
23403;DHT22;11874;48.228;11.684;2022-08-21T03:06:07;17.70;99.90
23403;DHT22;11874;48.228;11.684;2022-08-21T03:08:37;17.60;99.90
23403;DHT22;11874;48.228;11.684;2022-08-21T03:11:06;17.60;99.90
23403;DHT22;11874;48.228;11.684;2022-08-21T03:13:36;17.60;99.90
23403;DHT22;11874;48.228;11.684;2022-08-21T03:16:08;17.60;99.90
23403;DHT22;11874;48.228;11.684;2022-08-21T03:18:36;17.60;99.90
23403;DHT22;11874;48.228;11.684;2022-08-21T03:21:05;17.60;99.90
23403;DHT22;11874;48.228;11.684;2022-08-21T03:23:33;17.60;99.90
23403;DHT22;11874;48.228;11.684;2022-08-21T03:26:01;17.60;99.90
23403;DHT22;11874;48.228;11.684;2022-08-21T03:28:29;17.50;99.90
23403;DHT22;11874;48.228;11.684;2022-08-21T03:30:57;17.50;99.90
23403;DHT22;11874;48.228;11.684;2022-08-21T03:33:26;17.50;99.90
23403;DHT22;11874;48.228;11.684;2022-08-21T03:35:58;17.50;99.90
23403;DHT22;11874;48.228;11.684;2022-08-21T03:38:28;17.50;99.90
23403;DHT22;11874;48.228;11.684;2022-08-21T03:40:57;17.50;99.90
23403;DHT22;11874;48.228;11.684;2022-08-21T03:43:24;17.50;99.90
23403;DHT22;11874;48.228;11.684;2022-08-21T03:45:56;17.50;99.90
23403;DHT22;11874;48.228;11.684;2022-08-21T03:48:26;17.50;99.90
23403;DHT22;11874;48.228;11.684;2022-08-21T03:50:53;17.40;99.90
23403;DHT22;11874;48.228;11.684;2022-08-21T03:53:21;17.50;99.90
23403;DHT22;11874;48.228;11.684;2022-08-21T03:55:50;17.50;99.90
23403;DHT22;11874;48.228;11.684;2022-08-21T03:58:21;17.50;99.90
23403;DHT22;11874;48.228;11.684;2022-08-21T04:00:51;17.40;99.90
23403;DHT22;11874;48.228;11.684;2022-08-21T04:03:20;17.50;99.90
23403;DHT22;11874;48.228;11.684;2022-08-21T04:05:49;17.50;99.90
23403;DHT22;11874;48.228;11.684;2022-08-21T04:08:18;17.50;99.90
23403;DHT22;11874;48.228;11.684;2022-08-21T04:10:50;17.50;99.90
23403;DHT22;11874;48.228;11.684;2022-08-21T04:13:18;17.50;99.90
23403;DHT22;11874;48.228;11.684;2022-08-21T04:15:46;17.40;99.90
23403;DHT22;11874;48.228;11.684;2022-08-21T04:18:14;17.50;99.90
23403;DHT22;11874;48.228;11.684;2022-08-21T04:20:43;17.40;99.90
23403;DHT22;11874;48.228;11.684;2022-08-21T04:23:17;17.40;99.90
23403;DHT22;11874;48.228;11.684;2022-08-21T04:25:50;17.40;99.90
23403;DHT22;11874;48.228;11.684;2022-08-21T04:28:18;17.40;99.90
23403;DHT22;11874;48.228;11.684;2022-08-21T04:30:48;17.40;99.90
23403;DHT22;11874;48.228;11.684;2022-08-21T04:33:17;17.40;99.90
23403;DHT22;11874;48.228;11.684;2022-08-21T04:35:45;17.50;99.90
23403;DHT22;11874;48.228;11.684;2022-08-21T04:38:13;17.50;99.90
23403;DHT22;11874;48.228;11.684;2022-08-21T04:40:42;17.40;99.90
23403;DHT22;11874;48.228;11.684;2022-08-21T04:43:11;17.40;99.90
23403;DHT22;11874;48.228;11.684;2022-08-21T04:45:42;17.40;99.90
23403;DHT22;11874;48.228;11.684;2022-08-21T04:48:12;17.40;99.90
23403;DHT22;11874;48.228;11.684;2022-08-21T04:50:44;17.40;99.90
23403;DHT22;11874;48.228;11.684;2022-08-21T04:53:16;17.40;99.90
23403;DHT22;11874;48.228;11.684;2022-08-21T04:55:47;17.40;99.90
23403;DHT22;11874;48.228;11.684;2022-08-21T04:58:18;17.30;99.90
23403;DHT22;11874;48.228;11.684;2022-08-21T05:00:47;17.30;99.90
23403;DHT22;11874;48.228;11.684;2022-08-21T05:03:16;17.40;99.90
23403;DHT22;11874;48.228;11.684;2022-08-21T05:05:45;17.40;99.90
23403;DHT22;11874;48.228;11.684;2022-08-21T05:08:17;17.40;99.90
23403;DHT22;11874;48.228;11.684;2022-08-21T05:10:48;17.40;99.90
23403;DHT22;11874;48.228;11.684;2022-08-21T05:13:16;17.40;99.90
23403;DHT22;11874;48.228;11.684;2022-08-21T05:15:44;17.40;99.90
23403;DHT22;11874;48.228;11.684;2022-08-21T05:18:12;17.40;99.90
23403;DHT22;11874;48.228;11.684;2022-08-21T05:20:40;17.40;99.90
23403;DHT22;11874;48.228;11.684;2022-08-21T05:23:08;17.40;99.90
23403;DHT22;11874;48.228;11.684;2022-08-21T05:25:37;17.50;99.90
23403;DHT22;11874;48.228;11.684;2022-08-21T05:28:06;17.40;99.90
23403;DHT22;11874;48.228;11.684;2022-08-21T05:30:35;17.40;99.90
23403;DHT22;11874;48.228;11.684;2022-08-21T05:33:05;17.40;99.90
23403;DHT22;11874;48.228;11.684;2022-08-21T05:35:34;17.50;99.90
23403;DHT22;11874;48.228;11.684;2022-08-21T05:38:02;17.50;99.90
23403;DHT22;11874;48.228;11.684;2022-08-21T05:40:30;17.50;99.90
23403;DHT22;11874;48.228;11.684;2022-08-21T05:42:59;17.50;99.90
23403;DHT22;11874;48.228;11.684;2022-08-21T05:45:32;17.50;99.90
23403;DHT22;11874;48.228;11.684;2022-08-21T05:48:08;17.50;99.90
23403;DHT22;11874;48.228;11.684;2022-08-21T05:50:37;17.50;99.90
23403;DHT22;11874;48.228;11.684;2022-08-21T05:53:05;17.50;99.90
23403;DHT22;11874;48.228;11.684;2022-08-21T05:55:34;17.50;99.90
23403;DHT22;11874;48.228;11.684;2022-08-21T05:58:08;17.50;99.90
23403;DHT22;11874;48.228;11.684;2022-08-21T06:00:38;17.50;99.90
23403;DHT22;11874;48.228;11.684;2022-08-21T06:03:11;17.50;99.90
23403;DHT22;11874;48.228;11.684;2022-08-21T06:05:38;17.60;99.90
23403;DHT22;11874;48.228;11.684;2022-08-21T06:08:06;17.60;99.90
23403;DHT22;11874;48.228;11.684;2022-08-21T06:10:34;17.60;99.90
23403;DHT22;11874;48.228;11.684;2022-08-21T06:13:02;17.60;99.90
23403;DHT22;11874;48.228;11.684;2022-08-21T06:15:31;17.60;99.90
23403;DHT22;11874;48.228;11.684;2022-08-21T06:18:00;17.70;99.90
23403;DHT22;11874;48.228;11.684;2022-08-21T06:20:28;17.70;99.90
23403;DHT22;11874;48.228;11.684;2022-08-21T06:22:56;17.70;99.90
23403;DHT22;11874;48.228;11.684;2022-08-21T06:25:24;17.60;99.90
23403;DHT22;11874;48.228;11.684;2022-08-21T06:27:52;17.70;99.90
23403;DHT22;11874;48.228;11.684;2022-08-21T06:30:20;17.70;99.90
23403;DHT22;11874;48.228;11.684;2022-08-21T06:32:48;17.70;99.90
23403;DHT22;11874;48.228;11.684;2022-08-21T06:35:17;17.70;99.90
23403;DHT22;11874;48.228;11.684;2022-08-21T06:37:46;17.70;99.90
23403;DHT22;11874;48.228;11.684;2022-08-21T06:40:13;17.80;99.90
23403;DHT22;11874;48.228;11.684;2022-08-21T06:42:41;17.80;99.90
23403;DHT22;11874;48.228;11.684;2022-08-21T06:45:10;17.80;99.90
23403;DHT22;11874;48.228;11.684;2022-08-21T06:47:38;17.80;99.90
23403;DHT22;11874;48.228;11.684;2022-08-21T06:50:07;17.80;99.90
23403;DHT22;11874;48.228;11.684;2022-08-21T06:52:37;17.80;99.90
23403;DHT22;11874;48.228;11.684;2022-08-21T06:55:08;17.90;99.90
23403;DHT22;11874;48.228;11.684;2022-08-21T06:57:36;17.80;99.90
23403;DHT22;11874;48.228;11.684;2022-08-21T07:00:05;17.90;99.90
23403;DHT22;11874;48.228;11.684;2022-08-21T07:02:34;17.90;99.90
23403;DHT22;11874;48.228;11.684;2022-08-21T07:05:07;17.90;99.90
23403;DHT22;11874;48.228;11.684;2022-08-21T07:07:45;17.90;99.90
23403;DHT22;11874;48.228;11.684;2022-08-21T07:10:14;17.90;99.90
23403;DHT22;11874;48.228;11.684;2022-08-21T07:12:47;17.90;99.90
23403;DHT22;11874;48.228;11.684;2022-08-21T07:15:16;18.00;99.90
23403;DHT22;11874;48.228;11.684;2022-08-21T07:17:44;18.00;99.90
23403;DHT22;11874;48.228;11.684;2022-08-21T07:20:12;18.00;99.90
23403;DHT22;11874;48.228;11.684;2022-08-21T07:22:41;18.00;99.90
23403;DHT22;11874;48.228;11.684;2022-08-21T07:25:11;18.00;99.90
23403;DHT22;11874;48.228;11.684;2022-08-21T07:27:39;18.00;99.90
23403;DHT22;11874;48.228;11.684;2022-08-21T07:30:08;18.00;99.90
23403;DHT22;11874;48.228;11.684;2022-08-21T07:32:36;18.10;99.90
23403;DHT22;11874;48.228;11.684;2022-08-21T07:35:04;18.10;99.90
23403;DHT22;11874;48.228;11.684;2022-08-21T07:37:32;18.10;99.90
23403;DHT22;11874;48.228;11.684;2022-08-21T07:40:00;18.00;99.90
23403;DHT22;11874;48.228;11.684;2022-08-21T07:42:30;18.10;99.90
23403;DHT22;11874;48.228;11.684;2022-08-21T07:44:58;18.10;99.90
23403;DHT22;11874;48.228;11.684;2022-08-21T07:47:26;18.10;99.90
23403;DHT22;11874;48.228;11.684;2022-08-21T07:50:09;18.10;99.90
23403;DHT22;11874;48.228;11.684;2022-08-21T07:52:38;18.20;99.90
23403;DHT22;11874;48.228;11.684;2022-08-21T07:55:06;18.20;99.90
23403;DHT22;11874;48.228;11.684;2022-08-21T07:57:36;18.20;99.90
23403;DHT22;11874;48.228;11.684;2022-08-21T08:00:04;18.20;99.90
23403;DHT22;11874;48.228;11.684;2022-08-21T08:02:33;18.20;99.90
23403;DHT22;11874;48.228;11.684;2022-08-21T08:05:03;18.20;99.90
23403;DHT22;11874;48.228;11.684;2022-08-21T08:07:31;18.20;99.90
23403;DHT22;11874;48.228;11.684;2022-08-21T08:10:00;18.20;99.90
23403;DHT22;11874;48.228;11.684;2022-08-21T08:12:27;18.30;99.90
23403;DHT22;11874;48.228;11.684;2022-08-21T08:14:58;18.30;99.90
23403;DHT22;11874;48.228;11.684;2022-08-21T08:17:26;18.30;99.90
23403;DHT22;11874;48.228;11.684;2022-08-21T08:19:55;18.30;99.90
23403;DHT22;11874;48.228;11.684;2022-08-21T08:22:23;18.40;99.90
23403;DHT22;11874;48.228;11.684;2022-08-21T08:24:52;18.40;99.90
23403;DHT22;11874;48.228;11.684;2022-08-21T08:27:21;18.40;99.90
23403;DHT22;11874;48.228;11.684;2022-08-21T08:29:49;18.40;99.90
23403;DHT22;11874;48.228;11.684;2022-08-21T08:32:19;18.40;99.90
23403;DHT22;11874;48.228;11.684;2022-08-21T08:34:48;18.40;99.90
23403;DHT22;11874;48.228;11.684;2022-08-21T08:37:19;18.50;99.90
23403;DHT22;11874;48.228;11.684;2022-08-21T08:39:50;18.50;99.90
23403;DHT22;11874;48.228;11.684;2022-08-21T08:42:23;18.50;99.90
23403;DHT22;11874;48.228;11.684;2022-08-21T08:45:03;18.50;99.90
23403;DHT22;11874;48.228;11.684;2022-08-21T08:47:35;18.50;99.90
23403;DHT22;11874;48.228;11.684;2022-08-21T08:50:06;18.50;99.90
23403;DHT22;11874;48.228;11.684;2022-08-21T08:52:40;18.50;99.90
23403;DHT22;11874;48.228;11.684;2022-08-21T08:55:13;18.50;99.90
23403;DHT22;11874;48.228;11.684;2022-08-21T08:57:45;18.60;99.90
23403;DHT22;11874;48.228;11.684;2022-08-21T09:00:17;18.60;99.90
23403;DHT22;11874;48.228;11.684;2022-08-21T09:02:52;18.60;99.90
23403;DHT22;11874;48.228;11.684;2022-08-21T09:05:24;18.60;99.90
23403;DHT22;11874;48.228;11.684;2022-08-21T09:08:14;18.60;99.90
23403;DHT22;11874;48.228;11.684;2022-08-21T09:10:52;18.70;99.90
23403;DHT22;11874;48.228;11.684;2022-08-21T09:13:35;18.70;99.90
23403;DHT22;11874;48.228;11.684;2022-08-21T09:16:11;18.80;99.90
23403;DHT22;11874;48.228;11.684;2022-08-21T09:18:50;18.80;99.90
23403;DHT22;11874;48.228;11.684;2022-08-21T09:21:23;18.80;99.90
23403;DHT22;11874;48.228;11.684;2022-08-21T09:24:00;18.80;99.90
23403;DHT22;11874;48.228;11.684;2022-08-21T09:26:31;18.80;99.90
23403;DHT22;11874;48.228;11.684;2022-08-21T09:29:05;18.80;99.90
23403;DHT22;11874;48.228;11.684;2022-08-21T09:31:35;18.90;99.90
23403;DHT22;11874;48.228;11.684;2022-08-21T09:34:07;18.90;99.90
23403;DHT22;11874;48.228;11.684;2022-08-21T09:36:39;18.90;99.90
23403;DHT22;11874;48.228;11.684;2022-08-21T09:39:09;19.00;99.90
23403;DHT22;11874;48.228;11.684;2022-08-21T09:41:38;19.00;99.90
23403;DHT22;11874;48.228;11.684;2022-08-21T09:44:08;19.00;99.90
23403;DHT22;11874;48.228;11.684;2022-08-21T09:46:36;19.00;99.90
23403;DHT22;11874;48.228;11.684;2022-08-21T09:49:05;19.10;99.90
23403;DHT22;11874;48.228;11.684;2022-08-21T09:51:50;19.10;99.90
23403;DHT22;11874;48.228;11.684;2022-08-21T09:54:26;19.20;99.90
23403;DHT22;11874;48.228;11.684;2022-08-21T09:56:56;19.20;99.90
23403;DHT22;11874;48.228;11.684;2022-08-21T09:59:43;19.20;99.90
23403;DHT22;11874;48.228;11.684;2022-08-21T10:02:29;19.30;99.90
23403;DHT22;11874;48.228;11.684;2022-08-21T10:05:02;19.30;99.90
23403;DHT22;11874;48.228;11.684;2022-08-21T10:07:31;19.40;99.90
23403;DHT22;11874;48.228;11.684;2022-08-21T10:10:03;19.40;99.90
23403;DHT22;11874;48.228;11.684;2022-08-21T10:12:39;19.40;99.90
23403;DHT22;11874;48.228;11.684;2022-08-21T10:15:16;19.50;99.90
23403;DHT22;11874;48.228;11.684;2022-08-21T10:17:56;19.50;99.90
23403;DHT22;11874;48.228;11.684;2022-08-21T10:20:43;19.50;99.90
23403;DHT22;11874;48.228;11.684;2022-08-21T10:23:27;19.50;99.90
23403;DHT22;11874;48.228;11.684;2022-08-21T10:26:04;19.50;99.90
23403;DHT22;11874;48.228;11.684;2022-08-21T10:28:45;19.50;99.90
23403;DHT22;11874;48.228;11.684;2022-08-21T10:31:23;19.50;99.90
23403;DHT22;11874;48.228;11.684;2022-08-21T10:34:04;19.50;99.90
23403;DHT22;11874;48.228;11.684;2022-08-21T10:36:36;19.50;99.90
23403;DHT22;11874;48.228;11.684;2022-08-21T10:39:15;19.60;99.90
23403;DHT22;11874;48.228;11.684;2022-08-21T10:42:22;19.60;99.90
23403;DHT22;11874;48.228;11.684;2022-08-21T10:45:14;19.60;99.90
23403;DHT22;11874;48.228;11.684;2022-08-21T10:47:47;19.60;99.90
23403;DHT22;11874;48.228;11.684;2022-08-21T10:50:28;19.60;99.90
23403;DHT22;11874;48.228;11.684;2022-08-21T10:53:19;19.70;99.90
23403;DHT22;11874;48.228;11.684;2022-08-21T10:55:54;19.70;99.90
23403;DHT22;11874;48.228;11.684;2022-08-21T10:58:28;19.70;99.90
23403;DHT22;11874;48.228;11.684;2022-08-21T11:00:58;19.80;99.90
23403;DHT22;11874;48.228;11.684;2022-08-21T11:03:33;19.90;99.90
23403;DHT22;11874;48.228;11.684;2022-08-21T11:06:06;19.90;99.90
23403;DHT22;11874;48.228;11.684;2022-08-21T11:08:41;19.90;99.90
23403;DHT22;11874;48.228;11.684;2022-08-21T11:11:15;19.90;99.90
23403;DHT22;11874;48.228;11.684;2022-08-21T11:13:51;20.00;99.90
23403;DHT22;11874;48.228;11.684;2022-08-21T11:16:25;20.00;99.90
23403;DHT22;11874;48.228;11.684;2022-08-21T11:18:56;20.00;99.90
23403;DHT22;11874;48.228;11.684;2022-08-21T11:21:33;19.90;99.90
23403;DHT22;11874;48.228;11.684;2022-08-21T11:24:15;19.90;99.90
23403;DHT22;11874;48.228;11.684;2022-08-21T11:26:49;19.90;99.90
23403;DHT22;11874;48.228;11.684;2022-08-21T11:29:24;19.90;99.90
23403;DHT22;11874;48.228;11.684;2022-08-21T11:32:06;20.00;99.90
23403;DHT22;11874;48.228;11.684;2022-08-21T11:34:47;20.00;99.90
23403;DHT22;11874;48.228;11.684;2022-08-21T11:37:36;20.10;99.90
23403;DHT22;11874;48.228;11.684;2022-08-21T11:40:22;20.20;99.90
23403;DHT22;11874;48.228;11.684;2022-08-21T11:43:01;20.20;99.90
23403;DHT22;11874;48.228;11.684;2022-08-21T11:45:39;20.20;99.90
23403;DHT22;11874;48.228;11.684;2022-08-21T11:48:35;20.20;99.90
23403;DHT22;11874;48.228;11.684;2022-08-21T11:51:12;20.20;99.90
23403;DHT22;11874;48.228;11.684;2022-08-21T11:53:48;20.20;99.90
23403;DHT22;11874;48.228;11.684;2022-08-21T11:56:25;20.20;99.90
23403;DHT22;11874;48.228;11.684;2022-08-21T11:58:57;20.20;99.90
23403;DHT22;11874;48.228;11.684;2022-08-21T12:01:30;20.30;99.90
23403;DHT22;11874;48.228;11.684;2022-08-21T12:04:02;20.30;99.90
23403;DHT22;11874;48.228;11.684;2022-08-21T12:06:34;20.30;99.90
23403;DHT22;11874;48.228;11.684;2022-08-21T12:09:04;20.50;99.90
23403;DHT22;11874;48.228;11.684;2022-08-21T12:11:46;20.50;99.90
23403;DHT22;11874;48.228;11.684;2022-08-21T12:14:16;20.50;99.90
23403;DHT22;11874;48.228;11.684;2022-08-21T12:16:46;20.50;99.90
23403;DHT22;11874;48.228;11.684;2022-08-21T12:19:30;20.50;99.90
23403;DHT22;11874;48.228;11.684;2022-08-21T12:21:59;20.50;99.90
23403;DHT22;11874;48.228;11.684;2022-08-21T12:24:37;20.40;99.90
23403;DHT22;11874;48.228;11.684;2022-08-21T12:27:27;20.40;99.90
23403;DHT22;11874;48.228;11.684;2022-08-21T12:29:58;20.40;99.90
23403;DHT22;11874;48.228;11.684;2022-08-21T12:32:29;20.50;99.90
23403;DHT22;11874;48.228;11.684;2022-08-21T12:35:02;20.50;99.90
23403;DHT22;11874;48.228;11.684;2022-08-21T12:37:44;20.60;99.90
23403;DHT22;11874;48.228;11.684;2022-08-21T12:40:18;20.70;99.90
23403;DHT22;11874;48.228;11.684;2022-08-21T12:42:52;20.80;99.90
23403;DHT22;11874;48.228;11.684;2022-08-21T12:45:29;20.80;99.90
23403;DHT22;11874;48.228;11.684;2022-08-21T12:48:00;20.90;99.90
23403;DHT22;11874;48.228;11.684;2022-08-21T12:50:36;20.90;99.90
23403;DHT22;11874;48.228;11.684;2022-08-21T12:53:07;21.00;99.90
23403;DHT22;11874;48.228;11.684;2022-08-21T12:55:46;21.00;99.90
23403;DHT22;11874;48.228;11.684;2022-08-21T12:58:21;21.10;99.90
23403;DHT22;11874;48.228;11.684;2022-08-21T13:01:00;21.00;99.90
23403;DHT22;11874;48.228;11.684;2022-08-21T13:03:29;21.00;99.90
23403;DHT22;11874;48.228;11.684;2022-08-21T13:05:58;21.00;99.90
23403;DHT22;11874;48.228;11.684;2022-08-21T13:08:27;21.10;99.90
23403;DHT22;11874;48.228;11.684;2022-08-21T13:11:00;21.20;99.90
23403;DHT22;11874;48.228;11.684;2022-08-21T13:13:42;21.30;99.90
23403;DHT22;11874;48.228;11.684;2022-08-21T13:16:20;21.30;99.90
23403;DHT22;11874;48.228;11.684;2022-08-21T13:18:58;21.50;99.90
23403;DHT22;11874;48.228;11.684;2022-08-21T13:21:31;21.40;99.90
23403;DHT22;11874;48.228;11.684;2022-08-21T13:24:13;21.40;99.90
23403;DHT22;11874;48.228;11.684;2022-08-21T13:27:14;21.30;99.90
23403;DHT22;11874;48.228;11.684;2022-08-21T13:29:45;21.30;99.90
23403;DHT22;11874;48.228;11.684;2022-08-21T13:32:30;21.40;99.90
23403;DHT22;11874;48.228;11.684;2022-08-21T13:34:59;21.30;99.90
23403;DHT22;11874;48.228;11.684;2022-08-21T13:37:35;21.40;99.90
23403;DHT22;11874;48.228;11.684;2022-08-21T13:40:09;21.40;99.90
23403;DHT22;11874;48.228;11.684;2022-08-21T13:42:40;21.40;99.90
23403;DHT22;11874;48.228;11.684;2022-08-21T13:45:14;21.40;99.90
23403;DHT22;11874;48.228;11.684;2022-08-21T13:47:43;21.40;99.90
23403;DHT22;11874;48.228;11.684;2022-08-21T13:50:15;21.40;99.90
23403;DHT22;11874;48.228;11.684;2022-08-21T13:52:54;21.40;99.90
23403;DHT22;11874;48.228;11.684;2022-08-21T13:55:24;21.40;99.90
23403;DHT22;11874;48.228;11.684;2022-08-21T13:57:59;21.40;99.90
23403;DHT22;11874;48.228;11.684;2022-08-21T14:00:31;21.60;99.90
23403;DHT22;11874;48.228;11.684;2022-08-21T14:03:05;21.70;99.90
23403;DHT22;11874;48.228;11.684;2022-08-21T14:05:36;21.70;99.90
23403;DHT22;11874;48.228;11.684;2022-08-21T14:08:10;21.70;99.90
23403;DHT22;11874;48.228;11.684;2022-08-21T14:10:43;22.00;99.90
23403;DHT22;11874;48.228;11.684;2022-08-21T14:13:29;22.50;99.90
23403;DHT22;11874;48.228;11.684;2022-08-21T14:16:01;22.50;99.90
23403;DHT22;11874;48.228;11.684;2022-08-21T14:18:29;22.70;99.90
23403;DHT22;11874;48.228;11.684;2022-08-21T14:21:04;23.00;99.90
23403;DHT22;11874;48.228;11.684;2022-08-21T14:23:32;23.70;99.90
23403;DHT22;11874;48.228;11.684;2022-08-21T14:26:02;23.80;99.90
23403;DHT22;11874;48.228;11.684;2022-08-21T14:28:32;23.70;99.90
23403;DHT22;11874;48.228;11.684;2022-08-21T14:31:13;23.50;99.90
23403;DHT22;11874;48.228;11.684;2022-08-21T14:33:42;23.70;99.90
23403;DHT22;11874;48.228;11.684;2022-08-21T14:36:10;23.90;99.90
23403;DHT22;11874;48.228;11.684;2022-08-21T14:38:40;23.90;99.90
23403;DHT22;11874;48.228;11.684;2022-08-21T14:41:15;23.60;99.90
23403;DHT22;11874;48.228;11.684;2022-08-21T14:43:44;23.40;99.90
23403;DHT22;11874;48.228;11.684;2022-08-21T14:46:20;23.70;99.90
23403;DHT22;11874;48.228;11.684;2022-08-21T14:48:48;24.40;99.90
23403;DHT22;11874;48.228;11.684;2022-08-21T14:51:17;25.10;99.90
23403;DHT22;11874;48.228;11.684;2022-08-21T14:53:45;25.80;99.90
23403;DHT22;11874;48.228;11.684;2022-08-21T14:56:14;26.30;99.20
23403;DHT22;11874;48.228;11.684;2022-08-21T14:58:44;26.50;97.30
23403;DHT22;11874;48.228;11.684;2022-08-21T15:01:16;26.60;96.60
23403;DHT22;11874;48.228;11.684;2022-08-21T15:03:45;26.80;97.10
23403;DHT22;11874;48.228;11.684;2022-08-21T15:06:15;26.80;95.70
23403;DHT22;11874;48.228;11.684;2022-08-21T15:08:44;26.80;92.10
23403;DHT22;11874;48.228;11.684;2022-08-21T15:11:16;26.70;91.70
23403;DHT22;11874;48.228;11.684;2022-08-21T15:14:07;26.30;91.90
23403;DHT22;11874;48.228;11.684;2022-08-21T15:16:37;26.30;92.50
23403;DHT22;11874;48.228;11.684;2022-08-21T15:19:05;25.90;91.40
23403;DHT22;11874;48.228;11.684;2022-08-21T15:21:32;25.70;92.30
23403;DHT22;11874;48.228;11.684;2022-08-21T15:24:00;25.60;92.20
23403;DHT22;11874;48.228;11.684;2022-08-21T15:26:28;25.90;92.20
23403;DHT22;11874;48.228;11.684;2022-08-21T15:28:56;26.20;92.70
23403;DHT22;11874;48.228;11.684;2022-08-21T15:31:27;26.60;92.90
23403;DHT22;11874;48.228;11.684;2022-08-21T15:33:57;26.80;92.60
23403;DHT22;11874;48.228;11.684;2022-08-21T15:36:25;27.00;91.50
23403;DHT22;11874;48.228;11.684;2022-08-21T15:38:53;27.10;91.30
23403;DHT22;11874;48.228;11.684;2022-08-21T15:41:21;27.20;90.30
23403;DHT22;11874;48.228;11.684;2022-08-21T15:43:51;27.10;90.10